Time;durP1;ratioP1;P1;durP2;ratioP2;P2;SDS_P1;SDS_P2;PMS_P1;PMS_P2;Temp;Humidity;BMP_temperature;BMP_pressure;BME280_temperature;BME280_humidity;BME280_pressure;Samples;Min_cycle;Max_cycle;Signal;HPM_P1;HPM_P2
2022/06/20 00:02:21;;;;;;;0.50;0.20;;;13.80;99.90;;;;;;5056254;28;20124;-71
2022/06/20 00:04:50;;;;;;;4.25;0.60;;;13.80;99.90;;;;;;5058216;28;20127;-71
2022/06/20 00:07:16;;;;;;;0.15;0.10;;;13.80;99.90;;;;;;5051266;28;20517;-71
2022/06/20 00:09:42;;;;;;;0.85;0.25;;;13.80;99.90;;;;;;5057514;28;20041;-72
2022/06/20 00:12:11;;;;;;;0.63;0.30;;;13.80;99.90;;;;;;5051258;28;20436;-71
2022/06/20 00:14:37;;;;;;;2.03;0.50;;;13.80;99.90;;;;;;5048206;28;20119;-72
2022/06/20 00:17:08;;;;;;;3.25;0.40;;;13.70;99.90;;;;;;5055706;28;20492;-71
2022/06/20 00:19:34;;;;;;;1.05;0.50;;;13.70;99.90;;;;;;5034160;28;20052;-72
2022/06/20 00:22:00;;;;;;;1.45;0.60;;;13.70;99.90;;;;;;5059574;28;20052;-71
2022/06/20 00:24:26;;;;;;;0.75;0.30;;;13.70;99.90;;;;;;5058532;28;20037;-72
2022/06/20 00:26:52;;;;;;;1.13;0.40;;;13.70;99.90;;;;;;5060668;28;20071;-71
2022/06/20 00:29:18;;;;;;;0.70;0.40;;;13.70;99.90;;;;;;5054998;28;20087;-71
2022/06/20 00:31:43;;;;;;;1.85;0.30;;;13.70;99.90;;;;;;5057772;28;20044;-71
2022/06/20 00:34:10;;;;;;;1.05;0.45;;;13.70;99.90;;;;;;5062392;28;20067;-71
2022/06/20 00:36:36;;;;;;;0.80;0.30;;;13.70;99.90;;;;;;5043005;28;20120;-71
2022/06/20 00:39:01;;;;;;;0.55;0.40;;;13.60;99.90;;;;;;5054261;28;20143;-71
2022/06/20 00:41:31;;;;;;;1.17;0.50;;;13.60;99.90;;;;;;5059945;28;20032;-71
2022/06/20 00:43:57;;;;;;;2.83;0.52;;;13.60;99.90;;;;;;5050727;28;20091;-72
2022/06/20 00:46:43;;;;;;;0.85;0.47;;;13.60;99.90;;;;;;5059289;28;20031;-71
2022/06/20 00:49:22;;;;;;;2.70;0.50;;;13.60;99.90;;;;;;5050430;28;20072;-71
2022/06/20 00:52:10;;;;;;;1.27;0.35;;;13.50;99.90;;;;;;5054023;28;20044;-71
2022/06/20 00:54:48;;;;;;;0.65;0.40;;;13.50;99.90;;;;;;5054514;28;20036;-71
2022/06/20 00:57:22;;;;;;;4.97;0.57;;;13.50;99.90;;;;;;5043964;28;20082;-71
2022/06/20 00:59:52;;;;;;;1.55;0.43;;;13.50;99.90;;;;;;5052850;28;20520;-72
2022/06/20 01:02:27;;;;;;;1.25;0.52;;;13.40;99.90;;;;;;5054798;28;20044;-71
2022/06/20 01:04:58;;;;;;;1.40;0.45;;;13.40;99.90;;;;;;5052872;28;20037;-71
2022/06/20 01:07:33;;;;;;;1.08;0.40;;;13.40;99.90;;;;;;5044327;28;20159;-71
2022/06/20 01:10:01;;;;;;;1.38;0.50;;;13.40;99.90;;;;;;5056595;28;20472;-71
2022/06/20 01:12:31;;;;;;;2.83;0.75;;;13.40;99.90;;;;;;5059523;28;20043;-71
2022/06/20 01:14:57;;;;;;;0.85;0.50;;;13.50;99.90;;;;;;5054162;28;20033;-71
2022/06/20 01:17:35;;;;;;;1.02;0.52;;;13.50;99.90;;;;;;5056916;28;20053;-71
2022/06/20 01:20:27;;;;;;;1.15;0.50;;;13.50;99.90;;;;;;5054371;28;20044;-71
2022/06/20 01:23:11;;;;;;;2.03;0.60;;;13.60;99.90;;;;;;5061009;28;20040;-71
2022/06/20 01:25:37;;;;;;;1.40;0.50;;;13.50;99.90;;;;;;5062971;28;20067;-71
2022/06/20 01:28:05;;;;;;;3.97;0.85;;;13.50;99.90;;;;;;5065096;28;20612;-71
2022/06/20 01:30:37;;;;;;;0.55;0.40;;;13.60;99.90;;;;;;5050152;28;20049;-71
2022/06/20 01:33:04;;;;;;;2.80;0.40;;;13.60;99.90;;;;;;5057527;28;20036;-71
2022/06/20 01:38:15;;;;;;;1.00;0.50;;;13.50;99.90;;;;;;5056775;28;20127;-71
2022/06/20 01:42:18;;;;;;;1.20;0.60;;;13.50;99.90;;;;;;5046440;28;20516;-71
2022/06/20 01:43:32;;;;;;;0.82;0.40;;;13.50;99.90;;;;;;5058875;28;20055;-71
2022/06/20 01:46:00;;;;;;;1.00;0.50;;;13.50;99.90;;;;;;5060373;28;20048;-71
2022/06/20 01:48:29;;;;;;;2.95;0.60;;;13.50;99.90;;;;;;5047717;28;20051;-71
2022/06/20 01:50:54;;;;;;;0.63;0.43;;;13.40;99.90;;;;;;5075407;28;20045;-71
2022/06/20 01:53:26;;;;;;;4.63;0.47;;;13.40;99.90;;;;;;5062304;28;20374;-71
2022/06/20 01:55:53;;;;;;;0.68;0.47;;;13.30;99.90;;;;;;5034782;28;20485;-71
2022/06/20 01:58:26;;;;;;;0.88;0.40;;;13.30;99.90;;;;;;5062477;28;20483;-71
2022/06/20 02:00:51;;;;;;;2.78;0.65;;;13.20;99.90;;;;;;5059691;28;20045;-71
2022/06/20 02:03:19;;;;;;;1.95;0.50;;;13.20;99.90;;;;;;5060981;28;20041;-71
2022/06/20 02:05:47;;;;;;;1.63;0.60;;;13.30;99.90;;;;;;5060589;28;20044;-71
2022/06/20 02:08:16;;;;;;;1.85;0.52;;;13.30;99.90;;;;;;5051914;28;20095;-71
2022/06/20 02:10:53;;;;;;;1.25;0.22;;;13.20;99.90;;;;;;5059301;28;20136;-71
2022/06/20 02:13:21;;;;;;;0.88;0.47;;;13.20;99.90;;;;;;5038496;28;20498;-71
2022/06/20 02:15:49;;;;;;;0.52;0.30;;;13.10;99.90;;;;;;5048747;28;20122;-71
2022/06/20 02:18:17;;;;;;;3.53;0.60;;;13.10;99.90;;;;;;5041420;28;20136;-71
2022/06/20 02:20:47;;;;;;;0.50;0.32;;;13.10;99.90;;;;;;5036318;28;20066;-71
2022/06/20 02:23:26;;;;;;;0.70;0.60;;;13.10;99.90;;;;;;5051038;28;20132;-71
2022/06/20 02:25:54;;;;;;;0.82;0.40;;;13.10;99.90;;;;;;5059501;28;20486;-71
2022/06/20 02:29:01;;;;;;;0.95;0.50;;;13.10;99.90;;;;;;5063124;28;20575;-71
2022/06/20 02:31:27;;;;;;;7.03;0.80;;;13.10;99.90;;;;;;5069295;28;20057;-71
2022/06/20 02:33:54;;;;;;;5.78;0.90;;;13.00;99.90;;;;;;5032196;28;20075;-71
2022/06/20 02:36:20;;;;;;;0.70;0.40;;;13.00;99.90;;;;;;5060537;28;20038;-71
2022/06/20 02:38:47;;;;;;;5.95;1.33;;;12.90;99.90;;;;;;5063060;28;20089;-71
2022/06/20 02:41:16;;;;;;;1.50;0.60;;;12.90;99.90;;;;;;5062975;28;20166;-71
2022/06/20 02:43:56;;;;;;;0.88;0.52;;;12.90;99.90;;;;;;5059431;28;20124;-71
2022/06/20 02:46:25;;;;;;;0.98;0.43;;;12.70;99.90;;;;;;5043141;28;20037;-71
2022/06/20 02:48:52;;;;;;;5.57;0.85;;;12.70;99.90;;;;;;5040508;28;20041;-71
2022/06/20 02:51:28;;;;;;;0.88;0.40;;;12.70;99.90;;;;;;5059092;28;20043;-71
2022/06/20 02:54:01;;;;;;;1.00;0.50;;;12.70;99.90;;;;;;5058323;28;20037;-71
2022/06/20 02:56:30;;;;;;;1.80;0.40;;;12.70;99.90;;;;;;5051931;28;20045;-71
2022/06/20 02:58:59;;;;;;;0.50;0.47;;;12.70;99.90;;;;;;5058076;28;20071;-71
2022/06/20 03:01:32;;;;;;;2.60;0.88;;;12.70;99.90;;;;;;5055003;28;20079;-71
2022/06/20 03:03:58;;;;;;;0.98;0.73;;;12.70;99.90;;;;;;5059533;28;20036;-72
2022/06/20 03:06:37;;;;;;;1.55;0.68;;;12.70;99.90;;;;;;5060865;28;20444;-71
2022/06/20 03:09:03;;;;;;;0.93;0.40;;;12.70;99.90;;;;;;5059803;28;20037;-71
2022/06/20 03:11:34;;;;;;;0.93;0.47;;;12.70;99.90;;;;;;5057378;28;20037;-71
2022/06/20 03:14:04;;;;;;;1.08;0.50;;;12.70;99.90;;;;;;5059776;28;20037;-71
2022/06/20 03:16:31;;;;;;;0.93;0.55;;;12.70;99.90;;;;;;5049420;28;20036;-71
2022/06/20 03:18:59;;;;;;;0.65;0.43;;;12.70;99.90;;;;;;5052523;28;20049;-71
2022/06/20 03:21:31;;;;;;;5.00;0.80;;;12.70;99.90;;;;;;5059958;28;20048;-71
2022/06/20 03:23:56;;;;;;;0.50;0.40;;;12.60;99.90;;;;;;5055631;28;20098;-71
2022/06/20 03:26:25;;;;;;;2.40;0.60;;;12.60;99.90;;;;;;5059163;28;20033;-71
2022/06/20 03:28:52;;;;;;;5.00;0.68;;;12.60;99.90;;;;;;5057572;28;20494;-72
2022/06/20 03:31:18;;;;;;;1.33;0.65;;;12.50;99.90;;;;;;5060955;28;20132;-71
2022/06/20 03:33:44;;;;;;;2.78;0.63;;;12.50;99.90;;;;;;5052454;28;20120;-72
2022/06/20 03:36:20;;;;;;;1.77;0.75;;;12.40;99.90;;;;;;5056670;28;20490;-72
2022/06/20 03:38:47;;;;;;;0.80;0.50;;;12.40;99.90;;;;;;5038107;28;20043;-71
2022/06/20 03:41:15;;;;;;;0.25;0.22;;;12.40;99.90;;;;;;5057122;28;20052;-71
2022/06/20 03:43:49;;;;;;;3.08;0.50;;;12.40;99.90;;;;;;5056837;28;20044;-71
2022/06/20 03:46:20;;;;;;;0.70;0.40;;;12.40;99.90;;;;;;5054106;28;20040;-71
2022/06/20 03:49:10;;;;;;;1.48;0.73;;;12.40;99.90;;;;;;5037276;28;20509;-71
2022/06/20 03:51:43;;;;;;;1.17;0.52;;;12.40;99.90;;;;;;5060857;28;20383;-72
2022/06/20 03:54:24;;;;;;;1.48;0.30;;;12.40;99.90;;;;;;5059004;28;20562;-71
2022/06/20 03:56:52;;;;;;;0.65;0.40;;;12.40;99.90;;;;;;5043469;28;20060;-71
2022/06/20 03:59:25;;;;;;;0.77;0.47;;;12.40;99.90;;;;;;5053971;28;20233;-71
2022/06/20 04:02:09;;;;;;;1.42;0.63;;;12.40;99.90;;;;;;5059586;28;20028;-71
2022/06/20 04:05:01;;;;;;;0.90;0.38;;;12.40;99.90;;;;;;5058754;28;20049;-71
2022/06/20 04:07:50;;;;;;;0.35;0.30;;;12.40;99.90;;;;;;5058697;28;20631;-71
2022/06/20 04:13:25;;;;;;;0.73;0.40;;;12.30;99.90;;;;;;5054526;28;20045;-71
2022/06/20 04:15:57;;;;;;;1.50;0.40;;;12.30;99.90;;;;;;5071719;28;20170;-71
2022/06/20 04:18:36;;;;;;;0.95;0.47;;;12.30;99.90;;;;;;5051423;28;20041;-71
2022/06/20 04:21:26;;;;;;;1.77;0.73;;;12.40;99.90;;;;;;5052983;28;20044;-71
2022/06/20 04:24:05;;;;;;;0.65;0.43;;;12.40;99.90;;;;;;5057961;28;20041;-71
2022/06/20 04:26:54;;;;;;;0.85;0.50;;;12.40;99.90;;;;;;5060746;28;20474;-71
2022/06/20 04:29:33;;;;;;;2.47;0.75;;;12.40;99.90;;;;;;5057733;28;20040;-71
2022/06/20 04:32:08;;;;;;;0.77;0.57;;;12.40;99.90;;;;;;5031346;28;20040;-71
2022/06/20 04:34:42;;;;;;;0.95;0.55;;;12.40;99.90;;;;;;5057537;28;20522;-71
2022/06/20 04:37:26;;;;;;;1.45;0.88;;;12.50;99.90;;;;;;5061528;28;20044;-71
2022/06/20 04:40:11;;;;;;;4.38;0.85;;;12.60;99.90;;;;;;5050878;28;20604;-71
2022/06/20 04:42:51;;;;;;;3.38;0.80;;;12.60;99.90;;;;;;5053058;28;20041;-71
2022/06/20 04:45:46;;;;;;;0.75;0.45;;;12.70;99.90;;;;;;5060307;28;20059;-71
2022/06/20 04:48:15;;;;;;;2.30;0.75;;;12.70;99.90;;;;;;5055936;28;20571;-71
2022/06/20 04:50:46;;;;;;;0.68;0.47;;;12.70;99.90;;;;;;5055646;28;20132;-71
2022/06/20 04:53:25;;;;;;;2.15;0.60;;;12.80;99.90;;;;;;5060642;28;20544;-71
2022/06/20 04:55:54;;;;;;;1.23;0.38;;;12.80;99.90;;;;;;5062495;28;20504;-71
2022/06/20 04:58:28;;;;;;;2.70;0.63;;;12.90;99.90;;;;;;5062040;28;20462;-71
2022/06/20 05:00:55;;;;;;;2.20;0.75;;;12.90;99.90;;;;;;5056921;28;20432;-71
2022/06/20 05:03:26;;;;;;;0.65;0.40;;;12.90;99.90;;;;;;5043550;28;20067;-71
2022/06/20 05:05:55;;;;;;;1.70;0.82;;;13.00;99.90;;;;;;5059110;28;20530;-71
2022/06/20 05:08:36;;;;;;;1.27;0.55;;;13.00;99.90;;;;;;5060858;28;20037;-71
2022/06/20 05:11:09;;;;;;;1.23;0.70;;;13.00;99.90;;;;;;5038138;28;20053;-71
2022/06/20 05:13:43;;;;;;;3.60;0.80;;;12.90;99.90;;;;;;5056715;28;20593;-71
2022/06/20 05:16:18;;;;;;;1.92;0.80;;;13.00;99.90;;;;;;5061650;28;20045;-71
2022/06/20 05:18:50;;;;;;;2.03;0.73;;;13.00;99.90;;;;;;5052449;28;20449;-71
2022/06/20 05:21:23;;;;;;;1.13;0.70;;;13.00;99.90;;;;;;5060544;28;20472;-71
2022/06/20 05:24:03;;;;;;;1.42;0.75;;;13.10;99.90;;;;;;5062137;28;20064;-71
2022/06/20 05:26:38;;;;;;;1.30;0.80;;;13.10;99.90;;;;;;5059764;28;20040;-71
2022/06/20 05:29:07;;;;;;;3.78;1.02;;;13.10;99.90;;;;;;5060332;28;20052;-71
2022/06/20 05:31:40;;;;;;;2.15;0.63;;;13.10;99.90;;;;;;5055288;28;20040;-71
2022/06/20 05:34:22;;;;;;;1.02;0.60;;;13.10;99.90;;;;;;5038089;28;20032;-71
2022/06/20 05:37:03;;;;;;;3.17;0.90;;;13.20;99.90;;;;;;5057610;28;20028;-71
2022/06/20 05:39:52;;;;;;;1.85;0.60;;;13.20;99.90;;;;;;5060499;28;20040;-71
2022/06/20 05:42:19;;;;;;;1.85;0.70;;;13.20;99.90;;;;;;5049833;28;20049;-71
2022/06/20 05:44:45;;;;;;;3.55;1.00;;;13.20;99.90;;;;;;5051717;28;20040;-71
2022/06/20 05:47:30;;;;;;;3.28;1.10;;;13.30;99.90;;;;;;5059039;28;20981;-71
2022/06/20 05:50:23;;;;;;;2.03;0.93;;;13.30;99.90;;;;;;5058297;28;20040;-71
2022/06/20 05:52:51;;;;;;;1.35;0.75;;;13.30;99.90;;;;;;5054792;28;20421;-71
2022/06/20 05:55:24;;;;;;;2.60;0.82;;;13.40;99.90;;;;;;5063597;28;20037;-71
2022/06/20 05:57:50;;;;;;;2.25;0.75;;;13.40;99.90;;;;;;5050861;28;21500;-71
2022/06/20 06:00:21;;;;;;;2.10;1.02;;;13.50;99.90;;;;;;5059283;28;20146;-72
2022/06/20 06:02:58;;;;;;;1.40;0.90;;;13.50;99.90;;;;;;5064992;28;20115;-70
2022/06/20 06:06:02;;;;;;;5.63;0.98;;;13.50;99.90;;;;;;5055119;28;20078;-70
2022/06/20 06:08:42;;;;;;;1.70;0.50;;;13.60;99.90;;;;;;5058858;28;20102;-70
2022/06/20 06:11:26;;;;;;;1.63;0.68;;;13.70;99.90;;;;;;5056104;28;20037;-71
2022/06/20 06:14:00;;;;;;;2.70;1.20;;;13.70;99.90;;;;;;5059918;28;20574;-71
2022/06/20 06:16:48;;;;;;;1.17;0.55;;;13.90;99.90;;;;;;5057804;28;20048;-71
2022/06/20 06:19:38;;;;;;;2.05;0.93;;;13.90;99.90;;;;;;5060108;28;20040;-71
2022/06/20 06:22:27;;;;;;;4.63;0.85;;;14.00;99.90;;;;;;5063265;28;20070;-71
2022/06/20 06:24:58;;;;;;;7.32;1.05;;;14.10;99.90;;;;;;5053913;28;20044;-71
2022/06/20 06:27:28;;;;;;;4.97;0.73;;;14.20;99.90;;;;;;5048425;28;20122;-72
2022/06/20 06:29:57;;;;;;;1.75;0.88;;;14.30;99.90;;;;;;5037841;28;20069;-71
2022/06/20 06:32:27;;;;;;;4.05;1.25;;;14.40;99.90;;;;;;5055638;28;20433;-71
2022/06/20 06:35:07;;;;;;;2.10;0.80;;;14.60;99.90;;;;;;5058570;28;20117;-71
2022/06/20 06:37:55;;;;;;;1.45;0.60;;;15.20;99.90;;;;;;5052108;28;20091;-71
2022/06/20 06:40:33;;;;;;;1.92;0.93;;;16.10;97.00;;;;;;5054252;28;20039;-71
2022/06/20 06:43:00;;;;;;;3.33;1.02;;;16.20;96.30;;;;;;5075277;28;20127;-71
2022/06/20 06:45:30;;;;;;;3.22;0.85;;;16.20;97.00;;;;;;5050767;28;20083;-71
2022/06/20 06:48:02;;;;;;;1.60;0.70;;;16.00;97.50;;;;;;5042814;28;20032;-71
2022/06/20 06:50:39;;;;;;;3.03;1.13;;;15.70;98.30;;;;;;5056288;28;20041;-71
2022/06/20 06:53:12;;;;;;;2.38;0.70;;;15.40;99.00;;;;;;5052711;28;20044;-71
2022/06/20 06:55:45;;;;;;;4.57;0.98;;;15.20;99.90;;;;;;5053058;28;20406;-71
2022/06/20 06:58:15;;;;;;;1.67;0.70;;;15.00;99.90;;;;;;5051388;28;20044;-71
2022/06/20 07:00:49;;;;;;;2.55;0.77;;;14.90;99.90;;;;;;5067067;28;20044;-71
2022/06/20 07:03:20;;;;;;;1.73;0.70;;;14.70;99.90;;;;;;5051350;28;20040;-70
2022/06/20 07:06:01;;;;;;;3.05;0.60;;;14.70;99.90;;;;;;5054117;28;20049;-70
2022/06/20 07:08:32;;;;;;;3.95;0.82;;;14.70;99.90;;;;;;5047502;28;20508;-70
2022/06/20 07:11:08;;;;;;;3.50;0.85;;;14.80;99.90;;;;;;5059951;28;20062;-71
2022/06/20 07:13:37;;;;;;;1.77;0.70;;;14.90;99.90;;;;;;5039969;28;20045;-71
2022/06/20 07:16:13;;;;;;;4.88;0.85;;;15.10;99.90;;;;;;5055765;28;20072;-69
2022/06/20 07:18:46;;;;;;;1.60;0.60;;;15.30;99.50;;;;;;5071810;28;20057;-70
2022/06/20 07:21:17;;;;;;;2.42;0.95;;;15.40;98.70;;;;;;5057816;28;20486;-70
2022/06/20 07:23:45;;;;;;;1.80;0.70;;;15.50;98.30;;;;;;5064910;28;20113;-71
2022/06/20 07:26:13;;;;;;;1.80;0.70;;;15.50;98.30;;;;;;5057902;28;20220;-71
2022/06/20 07:28:52;;;;;;;2.95;0.73;;;15.60;97.60;;;;;;5057400;28;20037;-70
2022/06/20 07:31:22;;;;;;;2.25;0.82;;;15.70;97.30;;;;;;5058958;28;20078;-70
2022/06/20 07:33:56;;;;;;;1.92;0.88;;;15.70;97.80;;;;;;5052504;28;20037;-70
2022/06/20 07:36:34;;;;;;;1.42;0.73;;;15.90;95.80;;;;;;5044513;28;20028;-71
2022/06/20 07:39:23;;;;;;;0.93;0.55;;;15.90;95.10;;;;;;5043836;28;20032;-71
2022/06/20 07:41:55;;;;;;;2.10;0.70;;;15.80;95.00;;;;;;5063646;28;20032;-70
2022/06/20 07:44:33;;;;;;;4.07;1.08;;;15.70;96.10;;;;;;5056542;28;20040;-71
2022/06/20 07:47:10;;;;;;;2.40;0.80;;;15.60;95.90;;;;;;5057661;28;20072;-69
2022/06/20 07:49:42;;;;;;;2.10;0.70;;;15.50;96.50;;;;;;5060849;28;20044;-69
2022/06/20 07:52:25;;;;;;;5.35;0.80;;;15.40;96.80;;;;;;5066396;28;20078;-69
2022/06/20 07:54:58;;;;;;;1.13;0.82;;;15.30;95.90;;;;;;5046715;28;20507;-69
2022/06/20 07:57:33;;;;;;;2.25;0.70;;;15.20;96.70;;;;;;5060322;28;20038;-69
2022/06/20 08:00:09;;;;;;;4.22;0.82;;;15.30;96.90;;;;;;5061521;28;20417;-69
2022/06/20 08:02:55;;;;;;;5.93;0.90;;;15.40;96.50;;;;;;5072499;28;20044;-69
2022/06/20 08:05:29;;;;;;;2.35;0.75;;;15.40;95.10;;;;;;5041588;28;20037;-69
2022/06/20 08:08:01;;;;;;;2.47;0.77;;;15.40;95.70;;;;;;5061340;28;20070;-69
2022/06/20 08:10:34;;;;;;;2.88;0.80;;;15.40;96.30;;;;;;5056522;28;20086;-69
2022/06/20 08:13:25;;;;;;;1.77;0.40;;;15.40;95.90;;;;;;5061214;28;20028;-69
2022/06/20 08:15:58;;;;;;;2.65;0.77;;;15.50;93.40;;;;;;5062596;28;20114;-69
2022/06/20 08:18:25;;;;;;;1.95;0.80;;;15.50;95.20;;;;;;5072514;28;20056;-69
2022/06/20 08:21:01;;;;;;;2.10;0.55;;;15.60;95.50;;;;;;5047330;28;20419;-69
2022/06/20 08:23:40;;;;;;;0.70;0.50;;;15.60;94.50;;;;;;5066318;28;20047;-69
2022/06/20 08:26:12;;;;;;;2.28;0.70;;;15.70;95.10;;;;;;5057543;28;20048;-69
2022/06/20 08:29:06;;;;;;;2.67;0.60;;;15.80;95.40;;;;;;5053748;28;20536;-69
2022/06/20 08:31:33;;;;;;;2.40;0.65;;;16.00;94.90;;;;;;5049264;28;20729;-69
2022/06/20 08:34:15;;;;;;;3.05;0.80;;;16.10;94.60;;;;;;5062446;28;20043;-68
2022/06/20 08:36:47;;;;;;;1.23;0.50;;;16.20;93.70;;;;;;5052687;28;20040;-69
2022/06/20 08:39:22;;;;;;;2.33;0.55;;;16.30;92.00;;;;;;5049712;28;20265;-70
2022/06/20 08:42:02;;;;;;;;;;;16.20;93.70;;;;;;5053298;28;20037;-70
2022/06/20 08:44:53;;;;;;;2.05;0.80;;;16.20;89.80;;;;;;5048103;28;20374;-71
2022/06/20 08:47:48;;;;;;;1.60;0.70;;;16.00;94.00;;;;;;5061102;28;20075;-71
2022/06/20 08:50:29;;;;;;;2.88;0.70;;;16.00;93.10;;;;;;5054662;28;20072;-70
2022/06/20 08:53:19;;;;;;;1.17;0.63;;;16.20;91.70;;;;;;5058893;28;20505;-71
2022/06/20 08:56:19;;;;;;;5.32;0.80;;;16.30;92.10;;;;;;5044514;28;20418;-71
2022/06/20 08:59:16;;;;;;;0.45;0.30;;;16.40;82.80;;;;;;5051126;28;20044;-71
2022/06/20 09:01:52;;;;;;;1.40;0.50;;;16.40;91.00;;;;;;5055319;28;20040;-71
2022/06/20 09:05:00;;;;;;;2.80;0.55;;;16.50;90.80;;;;;;5048427;28;20512;-71
2022/06/20 09:07:42;;;;;;;0.90;0.35;;;16.50;90.20;;;;;;5055314;28;20685;-71
2022/06/20 09:10:31;;;;;;;1.38;0.40;;;16.40;91.50;;;;;;5055170;28;20123;-67
2022/06/20 09:13:25;;;;;;;1.27;0.55;;;16.40;92.60;;;;;;5051251;28;20052;-69
2022/06/20 09:16:12;;;;;;;0.55;0.30;;;16.40;91.80;;;;;;5057899;28;20174;-71
2022/06/20 09:19:12;;;;;;;1.38;0.47;;;16.50;91.90;;;;;;5055781;28;20065;-71
2022/06/20 09:22:00;;;;;;;1.20;0.32;;;16.70;85.10;;;;;;5042513;28;20048;-71
2022/06/20 09:24:45;;;;;;;3.08;0.50;;;16.70;88.00;;;;;;5057676;28;20047;-71
2022/06/20 09:27:21;;;;;;;0.50;0.40;;;16.80;89.20;;;;;;5052752;28;20485;-71
2022/06/20 09:29:46;;;;;;;1.35;0.40;;;16.80;90.30;;;;;;5055109;28;20044;-70
2022/06/20 09:32:43;;;;;;;1.55;0.40;;;16.90;89.00;;;;;;5057090;28;20036;-72
2022/06/20 09:35:27;;;;;;;2.10;0.50;;;16.90;77.50;;;;;;5033138;28;20044;-71
2022/06/20 09:38:26;;;;;;;0.68;0.40;;;16.80;80.60;;;;;;5057139;28;20097;-71
2022/06/20 09:41:15;;;;;;;1.48;0.50;;;16.80;84.90;;;;;;5052296;28;20047;-72
2022/06/20 09:44:03;;;;;;;0.82;0.50;;;16.70;88.60;;;;;;5059204;28;20044;-72
2022/06/20 09:46:47;;;;;;;0.73;0.50;;;16.60;89.80;;;;;;5036157;28;20043;-71
2022/06/20 09:49:19;;;;;;;1.02;0.50;;;16.60;87.60;;;;;;5041442;28;20041;-71
2022/06/20 09:51:53;;;;;;;0.85;0.30;;;16.50;90.30;;;;;;5032260;28;20049;-72
2022/06/20 09:54:36;;;;;;;1.63;0.80;;;16.50;90.30;;;;;;5048312;28;20051;-71
2022/06/20 09:57:14;;;;;;;0.88;0.47;;;16.50;87.00;;;;;;5043795;28;20444;-71
2022/06/20 09:59:48;;;;;;;0.70;0.50;;;16.60;90.40;;;;;;5047935;28;20049;-71
2022/06/20 10:02:20;;;;;;;0.82;0.57;;;16.70;89.30;;;;;;5055134;28;20032;-74
2022/06/20 10:05:02;;;;;;;2.03;0.80;;;16.70;89.90;;;;;;5049647;28;20032;-76
2022/06/20 10:07:49;;;;;;;2.53;0.75;;;16.80;84.60;;;;;;5060234;28;20044;-70
2022/06/20 10:10:21;;;;;;;3.22;0.57;;;16.90;87.90;;;;;;5064815;28;20669;-70
2022/06/20 10:12:59;;;;;;;1.27;0.60;;;17.00;84.40;;;;;;5057396;28;20041;-70
2022/06/20 10:15:49;;;;;;;1.05;0.50;;;17.10;85.60;;;;;;5052442;28;20089;-70
2022/06/20 10:18:33;;;;;;;0.75;0.40;;;17.20;86.30;;;;;;5049407;28;20053;-70
2022/06/20 10:21:11;;;;;;;2.35;0.70;;;17.30;84.00;;;;;;5061454;28;20049;-71
2022/06/20 10:24:08;;;;;;;1.05;0.50;;;17.30;83.60;;;;;;5063434;28;20104;-70
2022/06/20 10:26:48;;;;;;;4.78;0.65;;;17.20;82.10;;;;;;5062929;28;20045;-71
2022/06/20 10:29:20;;;;;;;0.93;0.40;;;17.10;81.00;;;;;;5042396;28;20048;-70
2022/06/20 10:32:16;;;;;;;7.05;0.68;;;16.90;85.70;;;;;;5055066;28;20089;-71
2022/06/20 10:34:53;;;;;;;1.77;0.60;;;16.90;82.70;;;;;;5054385;28;20051;-71
2022/06/20 10:37:34;;;;;;;2.65;0.47;;;16.70;86.80;;;;;;5063801;28;20046;-71
2022/06/20 10:40:01;;;;;;;0.60;0.30;;;16.70;85.90;;;;;;5059938;28;20044;-70
2022/06/20 10:42:38;;;;;;;0.77;0.40;;;16.60;85.70;;;;;;5058915;28;20076;-71
2022/06/20 10:45:22;;;;;;;2.15;0.47;;;16.70;83.70;;;;;;5054457;28;20052;-71
2022/06/20 10:48:06;;;;;;;0.60;0.30;;;16.60;81.80;;;;;;5059243;28;20085;-71
2022/06/20 10:50:50;;;;;;;0.52;0.32;;;16.70;81.50;;;;;;5055631;28;20199;-71
2022/06/20 10:53:25;;;;;;;1.40;0.43;;;16.70;84.20;;;;;;5068562;28;20115;-70
2022/06/20 10:56:21;;;;;;;0.70;0.32;;;16.80;82.40;;;;;;5033696;28;20796;-70
2022/06/20 10:59:07;;;;;;;0.90;0.50;;;16.90;81.60;;;;;;5062145;28;20429;-70
2022/06/20 11:01:39;;;;;;;0.73;0.40;;;17.00;81.90;;;;;;5064538;28;20051;-70
2022/06/20 11:04:14;;;;;;;0.80;0.50;;;17.00;83.80;;;;;;5057212;28;20128;-70
2022/06/20 11:07:17;;;;;;;2.05;0.47;;;17.00;84.40;;;;;;5065844;28;20677;-70
2022/06/20 11:10:05;;;;;;;0.47;0.32;;;17.00;79.40;;;;;;5061598;28;20218;-70
2022/06/20 11:12:55;;;;;;;1.13;0.30;;;16.90;78.80;;;;;;5044976;28;20107;-70
2022/06/20 11:15:49;;;;;;;1.02;0.40;;;16.90;82.10;;;;;;5061554;28;20040;-70
2022/06/20 11:19:02;;;;;;;2.42;0.50;;;17.10;82.70;;;;;;5063815;28;20522;-70
2022/06/20 11:21:33;;;;;;;0.63;0.38;;;17.30;80.90;;;;;;5042701;28;20049;-70
2022/06/20 11:24:22;;;;;;;2.63;0.80;;;17.30;84.10;;;;;;5061218;28;20087;-70
2022/06/20 11:27:19;;;;;;;0.40;0.30;;;17.20;80.60;;;;;;5066840;28;20059;-70
2022/06/20 11:30:11;;;;;;;2.28;0.63;;;17.20;79.60;;;;;;5068165;28;20075;-70
2022/06/20 11:33:11;;;;;;;1.15;0.38;;;17.10;77.90;;;;;;5064995;28;20079;-70
2022/06/20 11:35:58;;;;;;;0.55;0.40;;;17.10;75.60;;;;;;5055061;28;20054;-71
2022/06/20 11:38:29;;;;;;;1.52;0.68;;;17.20;79.70;;;;;;5059943;28;20400;-70
2022/06/20 11:41:14;;;;;;;0.30;0.22;;;17.50;81.60;;;;;;5057405;28;20473;-70
2022/06/20 11:43:39;;;;;;;1.17;0.35;;;17.50;75.30;;;;;;5064716;28;20432;-70
2022/06/20 11:46:17;;;;;;;1.90;0.50;;;17.50;79.60;;;;;;5059678;28;20709;-70
2022/06/20 11:49:04;;;;;;;2.67;0.73;;;17.40;79.70;;;;;;5075768;28;20051;-70
2022/06/20 11:51:36;;;;;;;0.85;0.35;;;17.40;81.50;;;;;;5063603;28;20214;-70
2022/06/20 11:54:25;;;;;;;0.70;0.40;;;17.50;74.70;;;;;;5070681;28;20044;-70
2022/06/20 11:56:55;;;;;;;0.90;0.50;;;17.50;69.60;;;;;;5066834;28;20504;-70
2022/06/20 11:59:38;;;;;;;1.15;0.40;;;17.50;75.80;;;;;;5040241;28;20040;-70
2022/06/20 12:02:30;;;;;;;1.92;0.30;;;17.60;74.50;;;;;;5054106;28;20447;-70
2022/06/20 12:05:17;;;;;;;1.42;0.38;;;17.70;71.60;;;;;;5062870;28;20537;-70
2022/06/20 12:08:03;;;;;;;0.93;0.47;;;17.80;75.30;;;;;;5055813;28;20044;-70
2022/06/20 12:10:46;;;;;;;0.98;0.57;;;17.80;68.70;;;;;;5053002;28;20059;-71
2022/06/20 12:13:27;;;;;;;1.15;0.60;;;17.70;71.70;;;;;;5065483;28;20085;-70
2022/06/20 12:16:36;;;;;;;1.77;0.63;;;17.60;75.70;;;;;;5053488;28;20041;-70
2022/06/20 12:24:51;;;;;;;1.05;0.60;;;17.10;79.80;;;;;;5064317;28;20135;-69
2022/06/20 12:27:19;;;;;;;0.82;0.50;;;17.20;78.30;;;;;;5041770;28;20500;-70
2022/06/20 12:29:47;;;;;;;1.20;0.50;;;17.20;77.10;;;;;;5030729;28;22042;-70
2022/06/20 12:32:20;;;;;;;1.25;0.60;;;17.30;79.00;;;;;;5055106;28;20032;-70
2022/06/20 12:35:20;;;;;;;1.85;0.55;;;17.50;78.50;;;;;;5040080;28;20494;-70
2022/06/20 12:37:57;;;;;;;1.65;0.60;;;17.60;72.60;;;;;;5044528;28;20129;-70
2022/06/20 12:40:29;;;;;;;0.60;0.40;;;17.60;75.20;;;;;;5056367;28;20040;-70
2022/06/20 12:43:21;;;;;;;1.35;0.70;;;17.60;77.90;;;;;;5055905;28;20171;-70
2022/06/20 12:45:52;;;;;;;0.55;0.45;;;17.40;78.60;;;;;;5043969;28;20617;-71
2022/06/20 12:48:36;;;;;;;1.42;0.65;;;17.20;78.80;;;;;;5057477;28;20040;-70
2022/06/20 12:51:56;;;;;;;1.67;0.70;;;17.10;76.00;;;;;;5065374;28;20041;-70
2022/06/20 12:54:46;;;;;;;1.63;0.80;;;17.10;78.60;;;;;;5003580;28;20443;-70
2022/06/20 12:57:53;;;;;;;0.85;0.38;;;17.20;75.60;;;;;;5045967;28;20494;-70
2022/06/20 13:00:46;;;;;;;0.90;0.60;;;17.40;67.10;;;;;;5054355;28;20049;-70
2022/06/20 13:03:45;;;;;;;1.60;0.57;;;17.40;68.00;;;;;;5053590;28;20036;-70
2022/06/20 13:06:19;;;;;;;0.70;0.43;;;17.50;74.00;;;;;;5068220;28;20040;-71
2022/06/20 13:08:53;;;;;;;1.20;0.60;;;17.50;75.40;;;;;;5044187;28;20520;-70
2022/06/20 13:11:32;;;;;;;1.13;0.60;;;17.50;74.50;;;;;;5064143;28;20089;-70
2022/06/20 13:14:33;;;;;;;1.25;0.60;;;17.60;74.20;;;;;;5050651;28;20502;-70
2022/06/20 13:17:08;;;;;;;2.10;0.50;;;17.60;75.70;;;;;;5043963;28;20167;-70
2022/06/20 13:20:03;;;;;;;1.63;0.60;;;17.60;75.40;;;;;;5057176;28;20081;-70
2022/06/20 13:22:51;;;;;;;0.63;0.40;;;17.60;72.30;;;;;;5041312;28;20541;-70
2022/06/20 13:25:38;;;;;;;1.65;0.55;;;17.60;72.00;;;;;;5065653;28;20040;-70
2022/06/20 13:28:09;;;;;;;1.65;0.50;;;17.60;71.30;;;;;;5060792;28;20040;-70
2022/06/20 13:31:13;;;;;;;1.63;0.60;;;17.60;75.20;;;;;;5070946;28;20097;-70
2022/06/20 13:34:01;;;;;;;0.88;0.73;;;17.50;70.90;;;;;;5062210;28;20044;-70
2022/06/20 13:36:41;;;;;;;0.95;0.50;;;17.40;71.00;;;;;;5055339;28;20138;-71
2022/06/20 13:39:31;;;;;;;0.80;0.50;;;17.40;72.20;;;;;;5058972;28;20647;-71
2022/06/20 13:42:10;;;;;;;1.95;1.13;;;17.40;75.20;;;;;;5050458;28;20036;-71
2022/06/20 13:45:08;;;;;;;1.38;0.85;;;17.50;73.80;;;;;;5039362;28;20048;-70
2022/06/20 13:48:08;;;;;;;0.88;0.47;;;17.50;74.40;;;;;;5054521;28;20056;-71
2022/06/20 13:51:10;;;;;;;0.82;0.50;;;17.40;74.40;;;;;;5056516;28;20036;-70
2022/06/20 13:54:02;;;;;;;0.82;0.57;;;17.30;73.60;;;;;;5058744;28;20051;-70
2022/06/20 13:56:36;;;;;;;1.10;0.50;;;17.20;76.00;;;;;;5057074;28;20047;-70